Meerawa, Australia

4:53 PM AEST on April 29, 2017 (GMT +1000)
Downtown Gordonvale | | Change Station

Elev 75 ft 17.10 °S, 145.79 °E | Updated 10 seconds ago

Clear
Clear
73.2 °F
Feels Like 76 °F
N
10.5
Wind Variable Wind from East
Gusts 17.4 mph

Today
High -- | Low -- °F
--% Chance of Precip.
Yesterday
High -- | Low -- °F
Precip. -- in
Pressure 29.92 in
Visibility 6.2 miles
Clouds Few 3200 ft
Scattered Clouds 28000 ft
Heat Index 76 °F
Dew Point 35 °F
Humidity 25%
Rainfall 0.00 in
Snow Depth Not available.
6:28 AM 5:59 PM
Waxing Crescent, 11% visible
METAR YBCS 290630Z 13013KT 9999 FEW032 SCT280 25/15 Q1013 NOSIG
Pressure 29.92 in
Visibility 6.2 miles
Clouds Few 3200 ft
Scattered Clouds 28000 ft
Heat Index 76 °F
Dew Point 35 °F
Humidity 25%
Rainfall 0.00 in
Snow Depth Not available.
6:28 AM 5:59 PM
Waxing Crescent, 11% visible
METAR YBCS 290630Z 13013KT 9999 FEW032 SCT280 25/15 Q1013 NOSIG

Get Severe Weather Alerts

Thanks for signing up!

Be on the lookout for a verification email in your inbox.

You'll start receiving the daily forecast at 8 AM.

×

10-Day Weather Forecast

×

Almanac

Astronomy

Apr. 29, 2017 Rise Set
Actual Time
Civil Twilight
Nautical Twilight
Astronomical Twilight
Moon
Length of Visible Light
Length of Day
Tomorrow will be .
, % of the Moon is Illuminated

Today's Extremes

Country Highs Country Lows

Community

WunderPhotos

WunderBlog® & News

Nearby

Air Quality

  Air Quality AQ Index Pollutant
Not available.

Snow Depth

Station Depth Elevation

Earthquake Activity

City Distance Mag. Time & Date
Minimum magnitude displayed is 2.5.

Coastal Water Temperatures

Place Temperature

Stations

Nearby Weather Stations

Station Location Temp. Windchill Dew Point Humidity Wind Precip. Elev Updated Type